Time;durP1;ratioP1;P1;durP2;ratioP2;P2;SDS_P1;SDS_P2;PMS_P1;PMS_P2;Temp;Humidity;BMP_temperature;BMP_pressure;BME280_temperature;BME280_humidity;BME280_pressure;Samples;Min_cycle;Max_cycle;Signal;HPM_P1;HPM_P2
2021/04/22 00:01:21;;;;;;;23.25;3.10;;;7.70;99.90;;;;;;5009158;28;20078;-55
2021/04/22 00:03:46;;;;;;;22.13;3.50;;;7.60;99.90;;;;;;5033183;28;20052;-57
2021/04/22 00:06:12;;;;;;;19.88;3.65;;;7.60;99.90;;;;;;5035740;28;20029;-58
2021/04/22 00:08:38;;;;;;;18.13;4.43;;;7.60;99.90;;;;;;5033852;28;20032;-56
2021/04/22 00:11:04;;;;;;;29.15;4.28;;;7.50;99.90;;;;;;5030073;28;20472;-58
2021/04/22 00:13:30;;;;;;;19.88;5.28;;;7.40;99.90;;;;;;5013194;28;20487;-56
2021/04/22 00:15:58;;;;;;;16.15;3.90;;;7.50;99.90;;;;;;5024837;28;20049;-57
2021/04/22 00:18:24;;;;;;;16.35;4.13;;;7.50;99.90;;;;;;5025938;28;20484;-57
2021/04/22 00:20:49;;;;;;;24.33;4.20;;;7.40;99.90;;;;;;5043103;28;20091;-57
2021/04/22 00:23:17;;;;;;;13.40;4.60;;;7.40;99.90;;;;;;5028020;28;20083;-58
2021/04/22 00:25:42;;;;;;;15.38;3.10;;;7.40;99.90;;;;;;5036648;28;20471;-56
2021/04/22 00:28:10;;;;;;;15.82;3.13;;;7.40;99.90;;;;;;5034545;28;20024;-57
2021/04/22 00:30:36;;;;;;;21.65;4.35;;;7.40;99.90;;;;;;5030449;28;20033;-57
2021/04/22 00:33:14;;;;;;;14.85;4.18;;;7.30;99.90;;;;;;5029930;28;20132;-57
2021/04/22 00:35:40;;;;;;;21.63;4.50;;;7.30;99.90;;;;;;5034365;28;20099;-53
2021/04/22 00:38:06;;;;;;;22.17;3.72;;;7.20;99.90;;;;;;5043453;28;20479;-58
2021/04/22 00:40:32;;;;;;;23.73;3.55;;;7.20;99.90;;;;;;5032197;28;20477;-55
2021/04/22 00:43:02;;;;;;;19.77;3.67;;;7.10;99.90;;;;;;5036417;28;20117;-60
2021/04/22 00:45:28;;;;;;;22.58;3.53;;;7.10;99.90;;;;;;5037504;28;20021;-54
2021/04/22 00:47:53;;;;;;;21.73;4.10;;;7.10;99.90;;;;;;5029573;28;20028;-57
2021/04/22 00:50:32;;;;;;;18.77;2.50;;;7.00;99.90;;;;;;5032041;28;20080;-56
2021/04/22 00:52:59;;;;;;;24.45;2.95;;;7.00;99.90;;;;;;5030114;28;20541;-58
2021/04/22 00:55:26;;;;;;;15.30;2.97;;;6.90;99.90;;;;;;5031204;28;20061;-58
2021/04/22 00:57:53;;;;;;;17.20;3.20;;;6.90;99.90;;;;;;5037465;28;20109;-57
2021/04/22 01:00:22;;;;;;;13.40;2.72;;;6.80;99.90;;;;;;5021259;28;20048;-53
2021/04/22 01:02:48;;;;;;;16.30;3.60;;;6.80;99.90;;;;;;5029149;28;20029;-57
2021/04/22 01:05:22;;;;;;;21.67;3.70;;;6.80;99.90;;;;;;5032376;28;20079;-58
2021/04/22 01:07:48;;;;;;;13.13;2.97;;;6.80;99.90;;;;;;5024622;28;20022;-58
2021/04/22 01:10:16;;;;;;;19.52;3.65;;;6.80;99.90;;;;;;5025354;28;20164;-57
2021/04/22 01:12:42;;;;;;;20.13;3.28;;;6.80;99.90;;;;;;5036489;28;20029;-58
2021/04/22 01:15:10;;;;;;;25.42;3.90;;;6.70;99.90;;;;;;5021365;28;20049;-56
2021/04/22 01:17:37;;;;;;;24.30;4.22;;;6.80;99.90;;;;;;5029997;28;20076;-58
2021/04/22 01:20:12;;;;;;;23.08;3.85;;;6.70;99.90;;;;;;5029219;28;20060;-56
2021/04/22 01:22:38;;;;;;;13.02;3.20;;;6.70;99.90;;;;;;5025628;28;20029;-55
2021/04/22 01:25:09;;;;;;;19.45;4.90;;;6.60;99.90;;;;;;5020626;28;20041;-57
2021/04/22 01:27:37;;;;;;;26.70;3.55;;;6.60;99.90;;;;;;5015600;28;20022;-57
2021/04/22 01:30:12;;;;;;;32.35;3.42;;;6.60;99.90;;;;;;5024522;28;20029;-59
2021/04/22 01:32:37;;;;;;;;;;;6.50;99.90;;;;;;5025859;28;20108;-58
2021/04/22 01:35:09;;;;;;;17.85;3.40;;;6.50;99.90;;;;;;5028983;28;20438;-58
2021/04/22 01:37:35;;;;;;;17.02;3.63;;;6.40;99.90;;;;;;5020712;28;20063;-56
2021/04/22 01:40:03;;;;;;;18.27;2.45;;;6.50;99.90;;;;;;5028826;28;20108;-57
2021/04/22 01:42:28;;;;;;;25.38;3.45;;;6.50;99.90;;;;;;5012087;28;20026;-55
2021/04/22 01:44:54;;;;;;;26.42;4.03;;;6.40;99.90;;;;;;5033821;28;20033;-56
2021/04/22 01:47:19;;;;;;;26.48;3.88;;;6.40;99.90;;;;;;5029646;28;20022;-57
2021/04/22 01:49:45;;;;;;;24.15;4.13;;;6.40;99.90;;;;;;5024752;28;20026;-57
2021/04/22 01:52:10;;;;;;;23.08;3.47;;;6.30;99.90;;;;;;5019088;28;20586;-56
2021/04/22 01:54:36;;;;;;;26.45;4.22;;;6.30;99.90;;;;;;5014879;28;20024;-56
2021/04/22 01:57:02;;;;;;;17.75;3.65;;;6.20;99.90;;;;;;5020429;28;20395;-57
2021/04/22 01:59:28;;;;;;;17.60;2.67;;;6.20;99.90;;;;;;5025386;28;20018;-58
2021/04/22 02:01:53;;;;;;;21.95;3.08;;;6.10;99.90;;;;;;5026874;28;20507;-56
2021/04/22 02:04:19;;;;;;;23.75;3.22;;;6.10;99.90;;;;;;5028701;28;20029;-56
2021/04/22 02:06:44;;;;;;;21.98;3.65;;;6.10;99.90;;;;;;5022122;28;20146;-57
2021/04/22 02:09:10;;;;;;;21.52;3.50;;;6.00;99.90;;;;;;4995984;28;20112;-54
2021/04/22 02:11:35;;;;;;;21.08;3.45;;;6.00;99.90;;;;;;5030632;28;20137;-58
2021/04/22 02:14:01;;;;;;;29.63;3.75;;;6.00;99.90;;;;;;5025882;28;20033;-59
2021/04/22 02:16:27;;;;;;;25.33;3.38;;;6.00;99.90;;;;;;5022487;28;20030;-59
2021/04/22 02:18:52;;;;;;;22.30;3.55;;;6.00;99.90;;;;;;5033535;28;20542;-59
2021/04/22 02:21:18;;;;;;;20.80;3.58;;;6.00;99.90;;;;;;5027560;28;20506;-59
2021/04/22 02:23:43;;;;;;;14.98;3.30;;;5.90;99.90;;;;;;5021508;28;20025;-59
2021/04/22 02:26:09;;;;;;;34.10;4.32;;;5.70;99.90;;;;;;5030765;28;20501;-59
2021/04/22 02:28:35;;;;;;;27.13;3.20;;;5.60;99.90;;;;;;5034471;28;20104;-59
2021/04/22 02:31:01;;;;;;;34.78;4.70;;;5.30;99.90;;;;;;5022292;28;20063;-59
2021/04/22 02:33:26;;;;;;;20.40;3.38;;;5.10;99.90;;;;;;5032964;28;20060;-59
2021/04/22 02:35:52;;;;;;;19.10;2.97;;;4.80;99.90;;;;;;5031294;28;20487;-59
2021/04/22 02:38:19;;;;;;;35.72;5.20;;;4.80;99.90;;;;;;5031690;28;20030;-59
2021/04/22 02:40:46;;;;;;;26.23;3.92;;;4.60;99.90;;;;;;5033599;28;20029;-59
2021/04/22 02:43:14;;;;;;;27.27;3.90;;;4.60;99.90;;;;;;5023451;28;20026;-59
2021/04/22 02:45:47;;;;;;;29.83;3.92;;;4.50;99.90;;;;;;5020121;28;20037;-57
2021/04/22 02:48:13;;;;;;;24.52;4.25;;;4.60;99.90;;;;;;5031677;28;20056;-57
2021/04/22 02:50:41;;;;;;;23.52;4.22;;;4.50;99.90;;;;;;5034007;28;20021;-59
2021/04/22 02:53:07;;;;;;;31.42;4.03;;;4.40;99.90;;;;;;5021607;28;20013;-59
2021/04/22 02:55:33;;;;;;;25.27;4.72;;;4.20;99.90;;;;;;5035227;28;20033;-58
2021/04/22 02:57:59;;;;;;;23.13;3.60;;;4.10;99.90;;;;;;5020130;28;20457;-59
2021/04/22 03:00:25;;;;;;;23.95;3.42;;;4.10;99.90;;;;;;5030328;28;20038;-57
2021/04/22 03:02:50;;;;;;;20.73;4.20;;;4.00;99.90;;;;;;5028426;28;20057;-56
2021/04/22 03:05:17;;;;;;;24.75;3.88;;;4.00;99.90;;;;;;5033407;28;20112;-58
2021/04/22 03:07:43;;;;;;;19.17;3.63;;;3.90;99.90;;;;;;5030762;28;20075;-59
2021/04/22 03:10:13;;;;;;;22.33;4.97;;;3.90;99.90;;;;;;5032008;28;20033;-55
2021/04/22 03:12:39;;;;;;;31.85;4.22;;;3.90;99.90;;;;;;5026559;28;20403;-56
2021/04/22 03:15:06;;;;;;;29.35;3.97;;;3.80;99.90;;;;;;5005156;28;20048;-57
2021/04/22 03:17:33;;;;;;;19.65;3.60;;;3.70;99.90;;;;;;5024221;28;20048;-55
2021/04/22 03:19:58;;;;;;;32.28;4.53;;;3.70;99.90;;;;;;5031992;28;20295;-59
2021/04/22 03:22:24;;;;;;;21.15;4.13;;;3.70;99.90;;;;;;5026914;28;20546;-58
2021/04/22 03:24:50;;;;;;;33.85;4.60;;;3.60;99.90;;;;;;5022242;28;20033;-58
2021/04/22 03:27:16;;;;;;;32.30;4.75;;;3.60;99.90;;;;;;5020903;28;20457;-58
2021/04/22 03:29:41;;;;;;;22.23;3.97;;;3.70;99.90;;;;;;5002937;28;20053;-57
2021/04/22 03:32:07;;;;;;;29.10;4.50;;;3.60;99.90;;;;;;5022434;28;20079;-57
2021/04/22 03:34:32;;;;;;;37.05;4.15;;;3.70;99.90;;;;;;5024868;28;20056;-56
2021/04/22 03:36:58;;;;;;;22.55;3.65;;;3.70;99.90;;;;;;5030752;28;20037;-55
2021/04/22 03:39:24;;;;;;;31.40;5.38;;;3.60;99.90;;;;;;5021382;28;20033;-56
2021/04/22 03:41:49;;;;;;;18.45;3.38;;;3.70;99.90;;;;;;5022284;28;20017;-58
2021/04/22 03:44:15;;;;;;;26.85;5.18;;;3.60;99.90;;;;;;5022464;28;20079;-58
2021/04/22 03:46:40;;;;;;;32.72;3.80;;;3.50;99.90;;;;;;5031796;28;20069;-59
2021/04/22 03:49:06;;;;;;;27.55;4.45;;;3.50;99.90;;;;;;5026260;28;20022;-57
2021/04/22 03:51:32;;;;;;;28.48;4.35;;;3.40;99.90;;;;;;5035060;28;20025;-59
2021/04/22 03:53:58;;;;;;;23.85;4.10;;;3.40;99.90;;;;;;5026097;28;20022;-57
2021/04/22 03:56:24;;;;;;;25.63;5.00;;;3.40;99.90;;;;;;5030845;28;20022;-59
2021/04/22 03:58:49;;;;;;;23.23;4.28;;;3.40;99.90;;;;;;5023211;28;20037;-58
2021/04/22 04:01:15;;;;;;;30.15;5.20;;;3.40;99.90;;;;;;5022015;28;20053;-58
2021/04/22 04:03:41;;;;;;;24.85;4.80;;;3.40;99.90;;;;;;5024567;28;20060;-59
2021/04/22 04:06:06;;;;;;;20.60;4.28;;;3.30;99.90;;;;;;5030840;28;20038;-55
2021/04/22 04:08:32;;;;;;;26.98;4.75;;;3.40;99.90;;;;;;5029807;28;20429;-59
2021/04/22 04:10:59;;;;;;;27.15;4.68;;;3.50;99.90;;;;;;5022377;28;20133;-58
2021/04/22 04:13:25;;;;;;;24.55;4.50;;;3.60;99.90;;;;;;5020672;28;20033;-59
2021/04/22 04:15:50;;;;;;;25.30;4.65;;;3.70;99.90;;;;;;5021025;28;20044;-59
2021/04/22 04:18:20;;;;;;;40.25;5.80;;;3.80;99.90;;;;;;5020291;28;20106;-59
2021/04/22 04:20:46;;;;;;;28.20;4.55;;;3.80;99.90;;;;;;5035802;28;20021;-59
2021/04/22 04:23:12;;;;;;;30.02;4.70;;;3.70;99.90;;;;;;5016571;28;20556;-58
2021/04/22 04:25:38;;;;;;;29.02;5.47;;;3.60;99.90;;;;;;5022887;28;20034;-59
2021/04/22 04:28:03;;;;;;;30.15;4.53;;;3.50;99.90;;;;;;5018029;28;20071;-57
2021/04/22 04:30:29;;;;;;;30.67;5.63;;;3.40;99.90;;;;;;5020256;28;20029;-58
2021/04/22 04:32:55;;;;;;;29.55;5.45;;;3.30;99.90;;;;;;5020881;28;20052;-59
2021/04/22 04:35:20;;;;;;;36.20;5.60;;;3.30;99.90;;;;;;5021528;28;20061;-58
2021/04/22 04:37:46;;;;;;;26.90;4.30;;;3.30;99.90;;;;;;5021723;28;20507;-58
2021/04/22 04:40:14;;;;;;;27.95;5.18;;;3.30;99.90;;;;;;5034781;28;20033;-53
2021/04/22 04:42:40;;;;;;;39.08;5.65;;;3.40;99.90;;;;;;5026690;28;20040;-59
2021/04/22 04:45:08;;;;;;;30.63;6.63;;;3.40;99.90;;;;;;5020680;28;20324;-60
2021/04/22 04:47:33;;;;;;;25.30;6.32;;;3.40;99.90;;;;;;5022181;28;20056;-59
2021/04/22 04:49:59;;;;;;;32.47;5.40;;;3.30;99.90;;;;;;5027379;28;20056;-59
2021/04/22 04:52:24;;;;;;;31.58;4.82;;;3.40;99.90;;;;;;5030228;28;20488;-58
2021/04/22 04:54:50;;;;;;;34.63;5.50;;;3.40;99.90;;;;;;5026892;28;20029;-58
2021/04/22 04:57:15;;;;;;;24.33;4.72;;;3.30;99.90;;;;;;5015457;28;20115;-59
2021/04/22 04:59:41;;;;;;;27.10;4.82;;;3.40;99.90;;;;;;5019025;28;20119;-59
2021/04/22 05:02:07;;;;;;;27.83;4.75;;;3.40;99.90;;;;;;5024990;28;20310;-59
2021/04/22 05:04:33;;;;;;;23.33;5.32;;;3.40;99.90;;;;;;5022970;28;20022;-59
2021/04/22 05:06:59;;;;;;;33.03;5.70;;;3.50;99.90;;;;;;5022436;28;20029;-58
2021/04/22 05:09:25;;;;;;;25.13;5.35;;;3.70;99.90;;;;;;5029728;28;20037;-57
2021/04/22 05:11:51;;;;;;;33.30;5.78;;;3.80;99.90;;;;;;5050559;23;20041;-57
2021/04/22 05:14:16;;;;;;;26.33;5.00;;;3.90;99.90;;;;;;5051375;28;20388;-55
2021/04/22 05:16:42;;;;;;;29.98;5.38;;;4.00;99.90;;;;;;5042908;28;20025;-55
2021/04/22 05:19:07;;;;;;;31.63;5.75;;;4.10;99.90;;;;;;5047157;28;20057;-56
2021/04/22 05:21:34;;;;;;;26.20;5.10;;;4.20;99.90;;;;;;5043988;28;20023;-53
2021/04/22 05:24:00;;;;;;;31.85;5.18;;;4.30;99.90;;;;;;5048581;28;20029;-52
2021/04/22 05:26:25;;;;;;;24.55;5.05;;;4.30;99.90;;;;;;5043505;28;20043;-53
2021/04/22 05:28:53;;;;;;;30.92;6.05;;;4.30;99.90;;;;;;5046160;28;20022;-52
2021/04/22 05:31:18;;;;;;;26.10;5.80;;;4.40;99.90;;;;;;5045453;28;20028;-52
2021/04/22 05:33:44;;;;;;;28.85;5.47;;;4.40;99.90;;;;;;5043483;28;20017;-52
2021/04/22 05:36:10;;;;;;;25.88;6.00;;;4.50;99.90;;;;;;5040561;28;20067;-56
2021/04/22 05:38:35;;;;;;;29.02;6.57;;;4.60;99.90;;;;;;5039543;28;20495;-54
2021/04/22 05:41:01;;;;;;;28.50;7.00;;;4.60;99.90;;;;;;5041775;28;20021;-52
2021/04/22 05:43:26;;;;;;;32.20;5.55;;;4.70;99.90;;;;;;5039410;28;20036;-52
2021/04/22 05:45:52;;;;;;;28.92;6.63;;;4.70;99.90;;;;;;5039791;28;20065;-51
2021/04/22 05:48:18;;;;;;;26.60;6.75;;;4.70;99.90;;;;;;5045996;28;20052;-51
2021/04/22 05:50:43;;;;;;;28.45;6.97;;;4.80;99.90;;;;;;5042652;28;20418;-52
2021/04/22 05:53:09;;;;;;;34.00;6.32;;;4.90;99.90;;;;;;5044356;28;20043;-55
2021/04/22 05:55:35;;;;;;;30.65;6.40;;;4.90;99.90;;;;;;5043987;28;20025;-56
2021/04/22 05:58:01;;;;;;;30.15;6.93;;;5.00;99.90;;;;;;5036631;28;20025;-56
2021/04/22 06:00:29;;;;;;;36.25;7.15;;;5.00;99.90;;;;;;5043216;28;20029;-56
2021/04/22 06:02:55;;;;;;;31.63;7.05;;;5.10;99.90;;;;;;5043562;28;20033;-53
2021/04/22 06:05:21;;;;;;;33.10;7.43;;;5.10;99.90;;;;;;5047388;28;20025;-52
2021/04/22 06:07:47;;;;;;;48.95;8.88;;;5.10;99.90;;;;;;5036531;28;20365;-53
2021/04/22 06:10:14;;;;;;;37.97;7.47;;;5.10;99.90;;;;;;5042461;28;20021;-51
2021/04/22 06:12:39;;;;;;;33.95;7.32;;;5.20;99.90;;;;;;5045273;28;20046;-52
2021/04/22 06:15:07;;;;;;;44.85;8.63;;;5.20;99.90;;;;;;5051363;28;20037;-52
2021/04/22 06:17:33;;;;;;;36.05;8.57;;;5.30;99.90;;;;;;5053199;28;20029;-54
2021/04/22 06:19:58;;;;;;;27.63;6.55;;;5.40;99.90;;;;;;5042855;28;20067;-52
2021/04/22 06:22:24;;;;;;;30.35;6.40;;;5.50;99.90;;;;;;5039035;28;20664;-52
2021/04/22 06:24:50;;;;;;;47.72;7.03;;;5.50;99.90;;;;;;5051817;28;20047;-53
2021/04/22 06:27:15;;;;;;;41.72;7.60;;;5.60;99.90;;;;;;5049087;28;20032;-54
2021/04/22 06:29:41;;;;;;;31.50;7.97;;;5.70;99.90;;;;;;5045631;28;20025;-56
2021/04/22 06:32:07;;;;;;;46.38;7.72;;;5.70;99.90;;;;;;5046521;28;20028;-56
2021/04/22 06:34:33;;;;;;;26.17;6.53;;;5.70;99.90;;;;;;5048941;28;20103;-52
2021/04/22 06:36:59;;;;;;;36.80;8.32;;;5.80;99.90;;;;;;5042232;28;21385;-52
2021/04/22 06:39:26;;;;;;;35.47;7.28;;;5.90;99.90;;;;;;5041840;28;20040;-53
2021/04/22 06:41:52;;;;;;;29.73;7.80;;;6.00;99.90;;;;;;5046851;28;20025;-53
2021/04/22 06:44:18;;;;;;;31.10;7.18;;;6.00;99.90;;;;;;5044669;28;20439;-51
2021/04/22 06:46:44;;;;;;;37.00;7.05;;;6.00;99.90;;;;;;5051760;28;20721;-54
2021/04/22 06:49:10;;;;;;;37.97;7.90;;;6.10;99.90;;;;;;5041092;28;20107;-53
2021/04/22 06:51:36;;;;;;;33.97;7.35;;;6.20;99.90;;;;;;5045063;28;20037;-54
2021/04/22 06:54:03;;;;;;;34.97;7.18;;;6.20;99.90;;;;;;5039407;28;20479;-52
2021/04/22 06:56:28;;;;;;;37.17;7.88;;;6.30;99.90;;;;;;5048380;28;20044;-52
2021/04/22 06:58:55;;;;;;;32.53;7.95;;;6.30;99.90;;;;;;5048488;28;20087;-53
2021/04/22 07:01:21;;;;;;;31.98;6.53;;;6.30;99.90;;;;;;5043784;28;20029;-51
2021/04/22 07:03:46;;;;;;;42.50;7.15;;;6.30;99.90;;;;;;5045137;28;20075;-53
2021/04/22 07:06:12;;;;;;;32.30;6.72;;;6.30;99.90;;;;;;5052105;28;20464;-54
2021/04/22 07:08:40;;;;;;;30.38;8.25;;;6.40;99.90;;;;;;5047951;28;20104;-54
2021/04/22 07:11:06;;;;;;;29.63;8.80;;;6.40;99.90;;;;;;5042890;28;20018;-51
2021/04/22 07:13:31;;;;;;;26.25;6.15;;;6.40;99.90;;;;;;5045029;28;20036;-51
2021/04/22 07:15:57;;;;;;;33.13;7.22;;;6.50;99.90;;;;;;5044783;28;20516;-56
2021/04/22 07:18:23;;;;;;;32.80;7.00;;;6.60;99.90;;;;;;5049455;28;20037;-51
2021/04/22 07:20:49;;;;;;;31.45;7.78;;;6.60;99.90;;;;;;5052166;28;20037;-53
2021/04/22 07:23:15;;;;;;;31.65;7.38;;;6.60;99.90;;;;;;5046801;28;20475;-56
2021/04/22 07:25:41;;;;;;;37.03;7.30;;;6.70;99.90;;;;;;5046906;28;20040;-50
2021/04/22 07:28:09;;;;;;;27.77;7.63;;;6.80;99.90;;;;;;5053477;28;20032;-54
2021/04/22 07:30:36;;;;;;;26.98;6.65;;;6.80;99.90;;;;;;5047347;28;20547;-53
2021/04/22 07:33:02;;;;;;;42.13;7.70;;;6.80;99.90;;;;;;5045360;28;20096;-53
2021/04/22 07:35:28;;;;;;;34.45;7.90;;;6.80;99.90;;;;;;5051947;28;20388;-51
2021/04/22 07:37:53;;;;;;;28.40;7.25;;;6.80;99.90;;;;;;5051257;28;20024;-54
2021/04/22 07:40:22;;;;;;;36.30;7.68;;;6.90;99.90;;;;;;5046954;28;20090;-53
2021/04/22 07:42:48;;;;;;;22.50;4.38;;;7.00;99.90;;;;;;5042741;28;20021;-53
2021/04/22 07:45:16;;;;;;;22.38;4.97;;;7.00;99.90;;;;;;5052399;28;20062;-54
2021/04/22 07:47:42;;;;;;;20.50;4.97;;;7.20;99.90;;;;;;5047505;28;20479;-52
2021/04/22 07:50:10;;;;;;;22.35;3.85;;;7.40;99.90;;;;;;5047547;28;20029;-52
2021/04/22 07:52:36;;;;;;;20.50;3.92;;;7.40;99.90;;;;;;5044918;28;20108;-51
2021/04/22 07:55:06;;;;;;;15.20;4.30;;;7.40;99.90;;;;;;5047985;28;20644;-53
2021/04/22 07:57:32;;;;;;;26.25;4.88;;;7.40;99.90;;;;;;5051218;28;20033;-55
2021/04/22 07:59:58;;;;;;;21.50;5.28;;;7.40;99.90;;;;;;5042649;28;20025;-52
2021/04/22 08:02:23;;;;;;;28.38;5.30;;;7.40;99.90;;;;;;5041206;28;20025;-55
2021/04/22 08:04:49;;;;;;;28.55;4.38;;;7.40;99.90;;;;;;5040931;28;20037;-56
2021/04/22 08:07:14;;;;;;;17.10;3.90;;;7.20;99.90;;;;;;5051679;28;20542;-53
2021/04/22 08:09:40;;;;;;;22.83;4.53;;;7.20;99.90;;;;;;5044594;28;20033;-54
2021/04/22 08:12:06;;;;;;;25.48;5.65;;;7.30;99.90;;;;;;5047259;28;20041;-53
2021/04/22 08:14:33;;;;;;;22.73;4.20;;;7.20;99.90;;;;;;5043431;28;20021;-54
2021/04/22 08:16:59;;;;;;;27.42;5.30;;;7.30;99.90;;;;;;5048273;28;20566;-54
2021/04/22 08:19:24;;;;;;;22.05;4.90;;;7.30;99.90;;;;;;5053624;28;20111;-53
2021/04/22 08:21:50;;;;;;;22.52;3.90;;;7.40;99.90;;;;;;5047609;28;20402;-56
2021/04/22 08:24:15;;;;;;;18.15;4.38;;;7.50;99.90;;;;;;5041714;28;20493;-52
2021/04/22 08:26:42;;;;;;;27.25;4.60;;;7.60;99.90;;;;;;5054210;28;20024;-54
2021/04/22 08:29:08;;;;;;;17.98;3.33;;;7.70;99.90;;;;;;5051456;28;20048;-52
2021/04/22 08:31:34;;;;;;;16.88;3.97;;;7.80;99.90;;;;;;5047142;28;20490;-56
2021/04/22 08:34:03;;;;;;;22.45;3.45;;;8.00;99.90;;;;;;5050132;28;20396;-55
2021/04/22 08:36:29;;;;;;;22.45;4.50;;;8.00;99.90;;;;;;5056018;28;20028;-52
2021/04/22 08:38:55;;;;;;;23.92;3.70;;;8.10;99.90;;;;;;5052079;28;20021;-53
2021/04/22 08:41:21;;;;;;;20.23;4.10;;;8.10;99.90;;;;;;5045499;28;20475;-55
2021/04/22 08:43:47;;;;;;;20.13;5.65;;;8.20;99.90;;;;;;5050244;28;20036;-57
2021/04/22 08:46:14;;;;;;;17.77;4.20;;;8.30;99.90;;;;;;5044996;28;20040;-56
2021/04/22 08:48:42;;;;;;;26.75;5.38;;;8.30;99.90;;;;;;5049015;28;20032;-56
2021/04/22 08:51:11;;;;;;;18.55;5.45;;;8.40;99.90;;;;;;5050661;28;20460;-56
2021/04/22 08:53:41;;;;;;;20.00;5.38;;;8.30;99.90;;;;;;5048046;28;20101;-52
2021/04/22 08:56:07;;;;;;;20.67;5.28;;;8.30;99.90;;;;;;5045973;28;20032;-54
2021/04/22 08:58:33;;;;;;;22.55;5.75;;;8.40;99.90;;;;;;5044524;28;20130;-55
2021/04/22 09:01:05;;;;;;;20.27;5.53;;;8.60;99.90;;;;;;5048698;28;20724;-54
2021/04/22 09:03:31;;;;;;;26.40;5.70;;;8.60;99.90;;;;;;5047002;28;20388;-52
2021/04/22 09:05:57;;;;;;;17.20;5.82;;;8.70;99.90;;;;;;5047486;28;20039;-54
2021/04/22 09:08:38;;;;;;;21.00;5.60;;;8.80;99.90;;;;;;5049600;28;20029;-57
2021/04/22 09:11:05;;;;;;;15.50;4.88;;;8.90;99.90;;;;;;5047682;28;20082;-56
2021/04/22 09:13:33;;;;;;;19.38;5.65;;;8.90;99.90;;;;;;5049676;28;20107;-56
2021/04/22 09:16:08;;;;;;;20.92;5.78;;;8.90;99.90;;;;;;5047714;28;20678;-56
2021/04/22 09:18:40;;;;;;;22.10;5.25;;;9.00;99.90;;;;;;5058406;28;20020;-56
2021/04/22 09:21:20;;;;;;;22.48;4.85;;;9.10;99.90;;;;;;5050237;28;20025;-56
2021/04/22 09:24:03;;;;;;;27.92;5.93;;;9.30;99.90;;;;;;5042137;28;20035;-55
2021/04/22 09:26:38;;;;;;;31.53;6.87;;;9.30;99.90;;;;;;5043984;28;20491;-56
2021/04/22 09:29:04;;;;;;;20.63;5.25;;;9.30;99.90;;;;;;5048095;28;20018;-56
2021/04/22 09:31:30;;;;;;;19.33;6.30;;;9.50;99.90;;;;;;5049007;28;20037;-53
2021/04/22 09:34:07;;;;;;;21.42;6.30;;;9.60;99.90;;;;;;5049083;28;20025;-56
2021/04/22 09:36:51;;;;;;;25.25;5.78;;;9.80;99.90;;;;;;5050062;28;20105;-56
2021/04/22 09:39:28;;;;;;;24.30;5.60;;;9.90;99.90;;;;;;5049938;28;20063;-55
2021/04/22 09:41:58;;;;;;;22.05;6.50;;;9.70;99.90;;;;;;5047977;28;20103;-56
2021/04/22 09:44:24;;;;;;;17.85;6.38;;;9.80;99.90;;;;;;5051891;28;20104;-57
2021/04/22 09:47:04;;;;;;;21.10;5.95;;;10.00;99.90;;;;;;5046762;28;20564;-53
2021/04/22 09:49:30;;;;;;;25.88;5.55;;;10.00;99.90;;;;;;5044909;28;20033;-55
2021/04/22 09:52:05;;;;;;;23.52;6.13;;;9.90;99.90;;;;;;5042955;28;20272;-52
2021/04/22 09:54:31;;;;;;;26.33;6.57;;;10.00;99.90;;;;;;5042897;28;20051;-54
2021/04/22 09:56:57;;;;;;;27.63;6.57;;;10.20;99.90;;;;;;5040437;28;20025;-56
2021/04/22 09:59:26;;;;;;;23.08;6.03;;;10.20;99.90;;;;;;5041148;28;20021;-53
2021/04/22 10:02:01;;;;;;;21.38;6.07;;;10.40;99.90;;;;;;5044910;28;20025;-56
2021/04/22 10:04:35;;;;;;;15.20;5.57;;;10.70;99.90;;;;;;5039512;28;20494;-55
2021/04/22 10:07:01;;;;;;;25.70;5.60;;;10.70;99.90;;;;;;5050158;28;20029;-55
2021/04/22 10:09:44;;;;;;;22.38;6.40;;;10.50;99.90;;;;;;5039736;28;20440;-56
2021/04/22 10:12:20;;;;;;;16.83;6.43;;;10.50;99.90;;;;;;5039595;28;20037;-57
2021/04/22 10:14:45;;;;;;;15.35;5.85;;;10.50;99.90;;;;;;5051986;28;20020;-56
2021/04/22 10:17:25;;;;;;;15.35;6.70;;;10.70;99.90;;;;;;5050847;28;20031;-56
2021/04/22 10:20:11;;;;;;;23.30;6.88;;;11.10;99.90;;;;;;5048501;28;20032;-57
2021/04/22 10:22:43;;;;;;;22.83;6.93;;;10.90;99.90;;;;;;5043637;28;20021;-55
2021/04/22 10:25:11;;;;;;;17.83;5.20;;;11.20;99.90;;;;;;5049741;28;20510;-55
2021/04/22 10:27:39;;;;;;;13.32;5.35;;;11.30;99.90;;;;;;5053957;28;20020;-54
2021/04/22 10:30:20;;;;;;;20.77;5.30;;;11.10;99.90;;;;;;5046257;28;20029;-54
2021/04/22 10:32:46;;;;;;;21.83;6.55;;;11.00;99.90;;;;;;5044222;28;20036;-54
2021/04/22 10:35:15;;;;;;;25.25;5.35;;;11.20;99.90;;;;;;5049018;28;20029;-53
2021/04/22 10:37:42;;;;;;;22.67;4.88;;;11.40;99.90;;;;;;5052231;28;20029;-53
2021/04/22 10:40:14;;;;;;;17.65;5.07;;;11.40;99.90;;;;;;5046733;28;20045;-56
2021/04/22 10:42:40;;;;;;;17.10;5.00;;;11.20;99.90;;;;;;5048008;28;20029;-55
2021/04/22 10:45:14;;;;;;;31.52;6.47;;;11.30;99.90;;;;;;5046366;28;20119;-56
2021/04/22 10:47:41;;;;;;;14.20;5.07;;;11.50;99.90;;;;;;5052019;28;20025;-54
2021/04/22 10:50:12;;;;;;;23.02;5.10;;;11.70;99.90;;;;;;5047259;28;20030;-55
2021/04/22 10:52:44;;;;;;;34.83;5.18;;;11.80;99.90;;;;;;5047588;28;20538;-52
2021/04/22 10:55:18;;;;;;;16.52;4.13;;;11.80;99.90;;;;;;5038888;28;20038;-53
2021/04/22 10:57:45;;;;;;;17.00;4.85;;;12.30;99.90;;;;;;5055597;28;20558;-52
2021/04/22 11:00:13;;;;;;;15.73;5.47;;;12.60;99.90;;;;;;5052044;28;20116;-55
2021/04/22 11:02:58;;;;;;;21.75;5.07;;;12.50;99.90;;;;;;5048036;28;20025;-54
2021/04/22 11:05:30;;;;;;;19.45;4.90;;;12.20;99.90;;;;;;5050215;28;20543;-55
2021/04/22 11:08:08;;;;;;;26.13;4.82;;;12.00;99.90;;;;;;5047649;28;20128;-57
2021/04/22 11:10:44;;;;;;;18.42;3.92;;;12.00;99.90;;;;;;5043363;28;20044;-56
2021/04/22 11:13:18;;;;;;;20.35;4.55;;;12.10;99.90;;;;;;5039412;28;20028;-54
2021/04/22 11:16:04;;;;;;;16.95;4.78;;;12.20;99.90;;;;;;5048630;28;20284;-56
2021/04/22 11:18:40;;;;;;;12.07;4.22;;;12.20;99.90;;;;;;5045430;28;20044;-56
2021/04/22 11:21:22;;;;;;;18.85;4.60;;;12.50;99.90;;;;;;5049548;28;20021;-56
2021/04/22 11:23:48;;;;;;;20.25;4.63;;;13.00;99.90;;;;;;5040869;28;20060;-56
2021/04/22 11:26:26;;;;;;;13.05;4.18;;;13.30;99.90;;;;;;5036668;28;20661;-55
2021/04/22 11:28:54;;;;;;;479.58;32.80;;;13.60;99.90;;;;;;5051039;28;20100;-52
2021/04/22 11:31:24;;;;;;;15.77;4.70;;;13.30;99.90;;;;;;5049248;28;20021;-52
2021/04/22 11:33:50;;;;;;;21.52;4.68;;;13.00;99.90;;;;;;5043714;28;20480;-54
2021/04/22 11:36:22;;;;;;;19.05;4.35;;;13.00;99.90;;;;;;5051386;28;20033;-53
2021/04/22 11:38:55;;;;;;;20.83;3.88;;;13.00;99.90;;;;;;5041929;28;20113;-53
2021/04/22 11:41:22;;;;;;;25.15;5.38;;;13.30;99.90;;;;;;5049326;28;20033;-56
2021/04/22 11:44:24;;;;;;;19.80;5.65;;;13.40;99.90;;;;;;5051173;28;20057;-56
2021/04/22 11:46:50;;;;;;;13.70;4.88;;;13.40;99.90;;;;;;5045005;28;20049;-55
2021/04/22 11:49:27;;;;;;;16.67;4.10;;;13.40;99.90;;;;;;5049608;28;20025;-55
2021/04/22 11:51:54;;;;;;;17.05;4.95;;;13.60;99.90;;;;;;5041031;28;20022;-55
2021/04/22 11:54:33;;;;;;;16.35;5.35;;;13.60;99.90;;;;;;5047712;28;20479;-55
2021/04/22 11:57:03;;;;;;;14.15;4.07;;;13.40;99.90;;;;;;5047986;28;20036;-56
2021/04/22 11:59:29;;;;;;;13.50;4.68;;;13.60;99.90;;;;;;5046602;28;20521;-56
2021/04/22 12:02:01;;;;;;;27.90;8.15;;;13.80;99.90;;;;;;5047771;28;20403;-58
2021/04/22 12:04:43;;;;;;;17.92;5.95;;;13.60;99.90;;;;;;5050808;28;20061;-57
2021/04/22 12:07:18;;;;;;;17.08;6.03;;;13.40;99.90;;;;;;5048839;28;20059;-55
2021/04/22 12:09:47;;;;;;;;;;;13.20;99.90;;;;;;5050324;28;20092;-55
2021/04/22 12:12:16;;;;;;;30.02;5.60;;;13.30;99.90;;;;;;5050328;28;20323;-56
2021/04/22 12:14:44;;;;;;;25.35;5.72;;;13.70;99.90;;;;;;5051078;28;20043;-56
2021/04/22 12:17:29;;;;;;;16.45;4.75;;;13.90;99.90;;;;;;5048716;28;20040;-55
2021/04/22 12:20:07;;;;;;;16.95;5.35;;;14.20;99.90;;;;;;5048632;28;20020;-55
2021/04/22 12:22:41;;;;;;;16.42;5.18;;;14.50;99.90;;;;;;5048816;28;20029;-53
2021/04/22 12:25:13;;;;;;;17.92;5.95;;;14.00;99.90;;;;;;5048462;28;20032;-55
2021/04/22 12:27:53;;;;;;;15.98;5.10;;;14.00;99.90;;;;;;5054391;28;20860;-53
2021/04/22 12:30:19;;;;;;;16.95;5.57;;;13.60;99.90;;;;;;5048833;28;20025;-54
2021/04/22 12:32:53;;;;;;;19.73;5.28;;;13.60;99.90;;;;;;5047887;28;20534;-56
2021/04/22 12:35:22;;;;;;;15.25;4.13;;;13.50;99.90;;;;;;5053968;28;20036;-53
2021/04/22 12:37:48;;;;;;;12.48;5.07;;;14.00;99.90;;;;;;5054341;28;20048;-56
2021/04/22 12:40:15;;;;;;;16.70;5.55;;;14.30;99.90;;;;;;5047351;28;20377;-54
2021/04/22 12:42:40;;;;;;;24.80;6.35;;;14.30;99.90;;;;;;5050075;28;20033;-55
2021/04/22 12:45:21;;;;;;;15.20;5.85;;;14.00;99.90;;;;;;5051889;28;20036;-55
2021/04/22 12:47:54;;;;;;;19.45;6.22;;;14.00;99.90;;;;;;5050789;28;20429;-54
2021/04/22 12:50:22;;;;;;;19.42;7.38;;;14.20;99.90;;;;;;5049952;28;20025;-54